Time;durP1;ratioP1;P1;durP2;ratioP2;P2;SDS_P1;SDS_P2;PMS_P1;PMS_P2;Temp;Humidity;BMP_temperature;BMP_pressure;BME280_temperature;BME280_humidity;BME280_pressure;Samples;Min_cycle;Max_cycle;Signal;HPM_P1;HPM_P2
2023/07/16 00:01:09;;;;;;;6.47;2.47;;;;;;;;;;5151682;27;20039;-66
2023/07/16 00:03:37;;;;;;;9.20;3.13;;;;;;;;;;5147065;27;20768;-65
2023/07/16 00:06:04;;;;;;;10.38;2.65;;;;;;;;;;5147637;27;20050;-65
2023/07/16 00:08:31;;;;;;;10.98;3.15;;;;;;;;;;5144717;27;20050;-65
2023/07/16 00:10:58;;;;;;;11.57;2.88;;;;;;;;;;5148210;27;20288;-65
2023/07/16 00:13:26;;;;;;;8.13;2.50;;;;;;;;;;5143454;27;20055;-65
2023/07/16 00:15:54;;;;;;;13.60;3.20;;;;;;;;;;5150507;27;20050;-66
2023/07/16 00:18:21;;;;;;;8.98;3.20;;;;;;;;;;5149977;27;20153;-65
2023/07/16 00:20:49;;;;;;;9.70;2.55;;;;;;;;;;5141325;27;20060;-65
2023/07/16 00:23:16;;;;;;;7.05;2.17;;;;;;;;;;5146347;27;20035;-65
2023/07/16 00:25:43;;;;;;;11.30;2.85;;;;;;;;;;5144414;27;20129;-65
2023/07/16 00:28:11;;;;;;;8.95;2.33;;;;;;;;;;5142880;27;20049;-66
2023/07/16 00:30:39;;;;;;;6.25;2.45;;;;;;;;;;5142078;27;20054;-65
2023/07/16 00:33:07;;;;;;;9.38;2.83;;;;;;;;;;5150409;27;20098;-65
2023/07/16 00:35:34;;;;;;;7.35;2.40;;;;;;;;;;5147985;27;20058;-66
2023/07/16 00:38:02;;;;;;;6.65;2.30;;;;;;;;;;5143090;27;20043;-66
2023/07/16 00:40:29;;;;;;;10.25;2.78;;;;;;;;;;5124522;27;20059;-65
2023/07/16 00:42:56;;;;;;;7.57;2.30;;;;;;;;;;5128203;27;20047;-66
2023/07/16 00:45:23;;;;;;;9.20;2.63;;;;;;;;;;5149350;27;20047;-65
2023/07/16 00:47:51;;;;;;;14.15;2.90;;;;;;;;;;5142390;27;20046;-65
2023/07/16 00:50:19;;;;;;;10.50;2.83;;;;;;;;;;5140824;27;20098;-65
2023/07/16 00:52:47;;;;;;;11.57;2.90;;;;;;;;;;5139824;27;20405;-65
2023/07/16 00:55:14;;;;;;;9.60;3.38;;;;;;;;;;5145116;27;20049;-67
2023/07/16 00:57:41;;;;;;;8.57;2.92;;;;;;;;;;5147463;27;20054;-66
2023/07/16 01:00:10;;;;;;;8.32;2.67;;;;;;;;;;5142983;27;20047;-65
2023/07/16 01:02:37;;;;;;;9.90;2.70;;;;;;;;;;5147186;27;20054;-66
2023/07/16 01:05:05;;;;;;;15.10;3.35;;;;;;;;;;5144655;27;20047;-66
2023/07/16 01:07:34;;;;;;;7.60;2.50;;;;;;;;;;5144202;27;20047;-67
2023/07/16 01:10:01;;;;;;;14.73;3.13;;;;;;;;;;5148923;27;20485;-66
2023/07/16 01:12:29;;;;;;;13.13;3.03;;;;;;;;;;5145408;27;20854;-66
2023/07/16 01:14:58;;;;;;;14.35;2.97;;;;;;;;;;5146032;27;20043;-65
2023/07/16 01:17:25;;;;;;;11.15;3.15;;;;;;;;;;5143754;27;20044;-67
2023/07/16 01:19:52;;;;;;;7.55;2.65;;;;;;;;;;5144608;27;20047;-66
2023/07/16 01:22:29;;;;;;;12.68;2.95;;;;;;;;;;5145557;27;20307;-66
2023/07/16 01:25:11;;;;;;;14.15;2.85;;;;;;;;;;5148122;27;20088;-66
2023/07/16 01:28:02;;;;;;;11.82;3.25;;;;;;;;;;5147230;27;20074;-66
2023/07/16 01:30:32;;;;;;;12.00;3.10;;;;;;;;;;5138417;27;20043;-66
2023/07/16 01:33:00;;;;;;;10.27;2.95;;;;;;;;;;5143870;27;20043;-65
2023/07/16 01:35:27;;;;;;;11.02;2.70;;;;;;;;;;5147702;27;20058;-67
2023/07/16 01:37:55;;;;;;;9.98;2.85;;;;;;;;;;5125507;27;20066;-66
2023/07/16 01:40:22;;;;;;;5.88;2.50;;;;;;;;;;5148522;27;20042;-66
2023/07/16 01:42:49;;;;;;;10.52;2.60;;;;;;;;;;5142710;27;20046;-65
2023/07/16 01:45:16;;;;;;;10.02;3.25;;;;;;;;;;5144343;27;20042;-66
2023/07/16 01:47:51;;;;;;;8.23;2.45;;;;;;;;;;5143926;27;20445;-66
2023/07/16 01:50:18;;;;;;;8.50;2.90;;;;;;;;;;5147383;27;20039;-66
2023/07/16 01:52:46;;;;;;;11.55;2.70;;;;;;;;;;5137866;27;20069;-65
2023/07/16 01:55:13;;;;;;;10.25;2.45;;;;;;;;;;5147678;27;20397;-65
2023/07/16 01:57:40;;;;;;;11.00;2.78;;;;;;;;;;5133615;27;20059;-66
2023/07/16 02:00:08;;;;;;;8.82;2.72;;;;;;;;;;5125223;27;20057;-66
2023/07/16 02:02:36;;;;;;;6.00;2.70;;;;;;;;;;5144645;27;20050;-67
2023/07/16 02:05:04;;;;;;;6.70;2.22;;;;;;;;;;5146673;27;20464;-67
2023/07/16 02:07:32;;;;;;;8.30;2.53;;;;;;;;;;5145239;27;20046;-68
2023/07/16 02:09:59;;;;;;;10.02;2.72;;;;;;;;;;5141291;27;20169;-66
2023/07/16 02:12:26;;;;;;;10.23;2.55;;;;;;;;;;5122711;27;20478;-67
2023/07/16 02:14:53;;;;;;;13.52;2.97;;;;;;;;;;5142366;27;20378;-65
2023/07/16 02:17:20;;;;;;;11.27;3.40;;;;;;;;;;5138352;27;20058;-66
2023/07/16 02:19:48;;;;;;;10.38;2.90;;;;;;;;;;5118856;27;20039;-65
2023/07/16 02:22:16;;;;;;;8.50;3.25;;;;;;;;;;5138144;27;20043;-65
2023/07/16 02:24:43;;;;;;;11.73;2.72;;;;;;;;;;5121929;27;20095;-66
2023/07/16 02:27:11;;;;;;;9.50;2.60;;;;;;;;;;5125249;27;20054;-66
2023/07/16 02:29:38;;;;;;;10.73;2.53;;;;;;;;;;5141904;27;20497;-66
2023/07/16 02:32:06;;;;;;;9.93;2.40;;;;;;;;;;5144807;27;20068;-65
2023/07/16 02:34:33;;;;;;;12.88;2.92;;;;;;;;;;5143327;27;20530;-65
2023/07/16 02:37:00;;;;;;;9.27;2.30;;;;;;;;;;5126874;27;20046;-65
2023/07/16 02:39:29;;;;;;;9.38;2.60;;;;;;;;;;5147772;27;20552;-66
2023/07/16 02:41:56;;;;;;;5.32;2.20;;;;;;;;;;5140902;27;20054;-64
2023/07/16 02:44:23;;;;;;;5.88;2.40;;;;;;;;;;5143629;27;20046;-66
2023/07/16 02:46:50;;;;;;;8.30;2.90;;;;;;;;;;5136002;27;20046;-65
2023/07/16 02:49:18;;;;;;;7.57;2.58;;;;;;;;;;5143857;27;20146;-66
2023/07/16 02:51:45;;;;;;;13.75;2.83;;;;;;;;;;5147636;27;20054;-67
2023/07/16 02:54:12;;;;;;;13.57;3.03;;;;;;;;;;5144897;27;20043;-65
2023/07/16 02:56:41;;;;;;;9.40;3.10;;;;;;;;;;5136883;27;20554;-66
2023/07/16 02:59:08;;;;;;;10.07;3.08;;;;;;;;;;5147654;27;20043;-66
2023/07/16 03:01:35;;;;;;;10.20;3.20;;;;;;;;;;5123039;27;20510;-66
2023/07/16 03:04:02;;;;;;;10.38;3.20;;;;;;;;;;5144694;27;20051;-66
2023/07/16 03:06:30;;;;;;;14.43;3.35;;;;;;;;;;5143787;27;20397;-66
2023/07/16 03:08:57;;;;;;;14.18;2.88;;;;;;;;;;5127249;27;20054;-65
2023/07/16 03:11:24;;;;;;;11.90;3.00;;;;;;;;;;5148780;27;20047;-66
2023/07/16 03:13:53;;;;;;;12.15;3.78;;;;;;;;;;5141760;27;20553;-65
2023/07/16 03:16:20;;;;;;;10.82;3.83;;;;;;;;;;5115300;27;20490;-66
2023/07/16 03:18:48;;;;;;;12.48;3.72;;;;;;;;;;5124992;27;20050;-66
2023/07/16 03:21:15;;;;;;;10.75;3.85;;;;;;;;;;5148757;27;20046;-66
2023/07/16 03:23:42;;;;;;;7.78;3.53;;;;;;;;;;5140522;27;20046;-66
2023/07/16 03:26:09;;;;;;;9.73;3.20;;;;;;;;;;5142064;27;20050;-66
2023/07/16 03:28:37;;;;;;;10.20;3.20;;;;;;;;;;5145400;27;20405;-66
2023/07/16 03:31:05;;;;;;;8.52;2.88;;;;;;;;;;5149767;27;20641;-66
2023/07/16 03:33:32;;;;;;;8.63;3.25;;;;;;;;;;5148004;27;20051;-66
2023/07/16 03:36:00;;;;;;;10.88;3.70;;;;;;;;;;5140357;27;20492;-66
2023/07/16 03:38:27;;;;;;;11.05;3.97;;;;;;;;;;5151842;27;20408;-66
2023/07/16 03:40:54;;;;;;;13.85;3.30;;;;;;;;;;5148792;27;20047;-66
2023/07/16 03:43:21;;;;;;;12.63;4.25;;;;;;;;;;5144229;27;20051;-66
2023/07/16 03:45:49;;;;;;;10.68;3.30;;;;;;;;;;5123698;27;20057;-65
2023/07/16 03:48:18;;;;;;;17.27;3.72;;;;;;;;;;5127667;27;20095;-67
2023/07/16 03:50:45;;;;;;;10.02;3.80;;;;;;;;;;5147273;27;20046;-67
2023/07/16 03:53:12;;;;;;;11.35;4.13;;;;;;;;;;5151833;27;20042;-67
2023/07/16 03:55:39;;;;;;;18.50;4.28;;;;;;;;;;5145895;27;20055;-69
2023/07/16 03:58:07;;;;;;;12.43;3.88;;;;;;;;;;5140419;27;20070;-67
2023/07/16 04:00:34;;;;;;;13.43;3.83;;;;;;;;;;5130317;27;20058;-69
2023/07/16 04:03:01;;;;;;;10.45;3.47;;;;;;;;;;5142608;27;20069;-68
2023/07/16 04:05:30;;;;;;;14.43;4.00;;;;;;;;;;5147998;27;20043;-68
2023/07/16 04:07:57;;;;;;;11.93;4.40;;;;;;;;;;5150788;27;20051;-67
2023/07/16 04:10:24;;;;;;;14.25;3.65;;;;;;;;;;5127782;27;20047;-69
2023/07/16 04:12:51;;;;;;;12.15;3.67;;;;;;;;;;5149525;27;20439;-67
2023/07/16 04:15:19;;;;;;;9.50;3.55;;;;;;;;;;5149457;27;20046;-68
2023/07/16 04:17:47;;;;;;;8.82;4.00;;;;;;;;;;5144071;27;20090;-66
2023/07/16 04:20:14;;;;;;;8.93;3.67;;;;;;;;;;5147181;27;20563;-68
2023/07/16 04:22:43;;;;;;;11.55;3.38;;;;;;;;;;5138656;27;20042;-68
2023/07/16 04:25:10;;;;;;;8.82;3.42;;;;;;;;;;5149580;27;20042;-67
2023/07/16 04:27:37;;;;;;;11.80;3.47;;;;;;;;;;5146799;27;20508;-68
2023/07/16 04:30:05;;;;;;;15.85;4.07;;;;;;;;;;5149210;27;20046;-67
2023/07/16 04:32:32;;;;;;;10.05;3.70;;;;;;;;;;5146430;27;20058;-68
2023/07/16 04:34:59;;;;;;;8.82;3.60;;;;;;;;;;5139195;27;20490;-68
2023/07/16 04:37:26;;;;;;;10.70;4.20;;;;;;;;;;5143147;27;20050;-67
2023/07/16 04:39:55;;;;;;;9.68;3.58;;;;;;;;;;5142044;27;20054;-68
2023/07/16 04:42:22;;;;;;;10.95;3.65;;;;;;;;;;5146194;27;20051;-67
2023/07/16 04:44:49;;;;;;;9.73;4.18;;;;;;;;;;5145782;27;20067;-70
2023/07/16 04:47:17;;;;;;;9.75;3.75;;;;;;;;;;5137014;27;20053;-69
2023/07/16 04:49:44;;;;;;;10.30;3.42;;;;;;;;;;5125112;27;20122;-69
2023/07/16 04:52:11;;;;;;;7.30;3.38;;;;;;;;;;5144665;27;20046;-69
2023/07/16 04:54:39;;;;;;;11.82;3.78;;;;;;;;;;5120045;27;20097;-69
2023/07/16 04:57:09;;;;;;;7.25;3.38;;;;;;;;;;5141923;27;20081;-68
2023/07/16 04:59:36;;;;;;;9.15;3.10;;;;;;;;;;5144677;27;20039;-69
2023/07/16 05:02:04;;;;;;;11.77;3.15;;;;;;;;;;5147906;27;20047;-70
2023/07/16 05:04:31;;;;;;;9.82;3.25;;;;;;;;;;5145983;27;20047;-69
2023/07/16 05:06:58;;;;;;;9.68;3.10;;;;;;;;;;5142980;27;20054;-67
2023/07/16 05:09:25;;;;;;;11.32;3.38;;;;;;;;;;5142400;27;20066;-67
2023/07/16 05:11:53;;;;;;;10.18;3.53;;;;;;;;;;5145238;27;20058;-68
2023/07/16 05:14:21;;;;;;;12.45;2.90;;;;;;;;;;5138367;27;20051;-68
2023/07/16 05:16:49;;;;;;;11.82;3.30;;;;;;;;;;5142937;27;20099;-66
2023/07/16 05:19:16;;;;;;;14.77;3.28;;;;;;;;;;5146205;27;20045;-68
2023/07/16 05:21:43;;;;;;;13.32;3.90;;;;;;;;;;5143258;27;20042;-68
2023/07/16 05:24:10;;;;;;;9.02;3.42;;;;;;;;;;5141863;27;20057;-68
2023/07/16 05:26:38;;;;;;;11.30;3.20;;;;;;;;;;5143290;27;20069;-67
2023/07/16 05:29:05;;;;;;;9.55;3.47;;;;;;;;;;5140526;27;20058;-70
2023/07/16 05:31:34;;;;;;;11.65;3.72;;;;;;;;;;5141366;27;20058;-67
2023/07/16 05:34:01;;;;;;;11.45;3.97;;;;;;;;;;5140654;27;20065;-66
2023/07/16 05:36:28;;;;;;;13.07;4.22;;;;;;;;;;5139885;27;20043;-67
2023/07/16 05:38:56;;;;;;;11.05;4.35;;;;;;;;;;5147009;27;20046;-69
2023/07/16 05:41:23;;;;;;;12.48;4.25;;;;;;;;;;5149339;27;20050;-68
2023/07/16 05:43:50;;;;;;;12.52;3.80;;;;;;;;;;5125239;27;20093;-68
2023/07/16 05:46:17;;;;;;;13.88;3.90;;;;;;;;;;5145064;27;20504;-71
2023/07/16 05:48:46;;;;;;;10.35;3.90;;;;;;;;;;5146199;27;20055;-67
2023/07/16 05:51:13;;;;;;;9.20;3.45;;;;;;;;;;5125902;27;20461;-70
2023/07/16 05:53:41;;;;;;;11.45;3.70;;;;;;;;;;5121312;27;20065;-70
2023/07/16 05:56:08;;;;;;;13.48;4.20;;;;;;;;;;5141723;27;20051;-72
2023/07/16 05:58:35;;;;;;;17.75;4.22;;;;;;;;;;5139809;27;20042;-68
2023/07/16 06:01:02;;;;;;;14.48;3.70;;;;;;;;;;5139303;27;20051;-70
2023/07/16 06:03:30;;;;;;;9.90;3.83;;;;;;;;;;5142159;27;20505;-73
2023/07/16 06:05:58;;;;;;;12.63;3.40;;;;;;;;;;5145010;27;20095;-69
2023/07/16 06:08:26;;;;;;;12.45;3.60;;;;;;;;;;5143570;27;20051;-68
2023/07/16 06:10:53;;;;;;;10.90;3.78;;;;;;;;;;5147279;27;20069;-69
2023/07/16 06:13:20;;;;;;;12.30;3.22;;;;;;;;;;5134859;27;20061;-70
2023/07/16 06:15:48;;;;;;;7.03;3.03;;;;;;;;;;5141773;27;20051;-70
2023/07/16 06:18:15;;;;;;;11.02;3.80;;;;;;;;;;5150367;27;20046;-71
2023/07/16 06:20:45;;;;;;;13.13;4.07;;;;;;;;;;5121763;27;20051;-71
2023/07/16 06:23:16;;;;;;;13.02;3.60;;;;;;;;;;5141540;27;20059;-70
2023/07/16 06:25:44;;;;;;;14.38;4.03;;;;;;;;;;5144809;27;20492;-74
2023/07/16 06:28:11;;;;;;;13.55;3.92;;;;;;;;;;5113159;27;20046;-69
2023/07/16 06:30:39;;;;;;;12.38;4.32;;;;;;;;;;5121122;27;20409;-70
2023/07/16 06:33:06;;;;;;;10.90;3.92;;;;;;;;;;5147162;27;20047;-69
2023/07/16 06:35:33;;;;;;;10.93;4.13;;;;;;;;;;5146236;27;20490;-68
2023/07/16 06:38:01;;;;;;;13.63;4.63;;;;;;;;;;5143284;27;20508;-68
2023/07/16 06:40:30;;;;;;;9.43;4.00;;;;;;;;;;5145262;27;20126;-66
2023/07/16 06:42:57;;;;;;;16.33;4.25;;;;;;;;;;5143214;27;20500;-68
2023/07/16 06:45:24;;;;;;;14.50;4.55;;;;;;;;;;5145276;27;20046;-68
2023/07/16 06:47:51;;;;;;;14.95;4.75;;;;;;;;;;5142459;27;20063;-66
2023/07/16 06:50:19;;;;;;;12.38;4.60;;;;;;;;;;5143943;27;20043;-68
2023/07/16 06:52:46;;;;;;;12.23;4.43;;;;;;;;;;5142796;27;20051;-67
2023/07/16 06:55:13;;;;;;;14.00;4.07;;;;;;;;;;5142088;27;20058;-66
2023/07/16 06:57:42;;;;;;;10.85;4.20;;;;;;;;;;5141950;27;20047;-66
2023/07/16 07:00:11;;;;;;;12.45;3.92;;;;;;;;;;5143454;27;20045;-68
2023/07/16 07:02:38;;;;;;;11.32;3.33;;;;;;;;;;5147559;27;20053;-66
2023/07/16 07:05:06;;;;;;;14.05;4.30;;;;;;;;;;5131882;27;20058;-66
2023/07/16 07:07:33;;;;;;;15.13;3.95;;;;;;;;;;5141689;27;20054;-66
2023/07/16 07:10:00;;;;;;;14.70;3.45;;;;;;;;;;5144782;27;20497;-66
2023/07/16 07:12:28;;;;;;;16.73;3.65;;;;;;;;;;5138451;27;20039;-68
2023/07/16 07:14:56;;;;;;;13.13;3.50;;;;;;;;;;5142657;27;20047;-66
2023/07/16 07:17:24;;;;;;;9.68;2.60;;;;;;;;;;5148109;27;20085;-66
2023/07/16 07:19:51;;;;;;;14.73;3.47;;;;;;;;;;5130692;27;20066;-65
2023/07/16 07:22:18;;;;;;;16.08;3.03;;;;;;;;;;5148681;27;20049;-65
2023/07/16 07:24:45;;;;;;;11.55;2.90;;;;;;;;;;5147214;27;20046;-67
2023/07/16 07:27:13;;;;;;;19.85;3.35;;;;;;;;;;5148880;27;20493;-66
2023/07/16 07:29:40;;;;;;;9.75;2.45;;;;;;;;;;5144570;27;20042;-68
2023/07/16 07:32:09;;;;;;;18.58;2.70;;;;;;;;;;5142174;27;20049;-66
2023/07/16 07:34:36;;;;;;;8.15;1.88;;;;;;;;;;5148504;27;20066;-66
2023/07/16 07:37:04;;;;;;;11.98;2.63;;;;;;;;;;5138787;27;20468;-65
2023/07/16 07:39:34;;;;;;;11.80;2.35;;;;;;;;;;5147459;27;20047;-66
2023/07/16 07:42:01;;;;;;;12.32;2.83;;;;;;;;;;5148506;27;20053;-65
2023/07/16 07:44:28;;;;;;;16.10;3.10;;;;;;;;;;5141963;27;20050;-66
2023/07/16 07:46:56;;;;;;;10.50;3.03;;;;;;;;;;5142764;27;20053;-67
2023/07/16 07:49:24;;;;;;;13.15;3.85;;;;;;;;;;5123288;27;20051;-65
2023/07/16 07:51:51;;;;;;;7.25;3.35;;;;;;;;;;5146816;27;20130;-67
2023/07/16 07:54:19;;;;;;;8.77;3.35;;;;;;;;;;5146684;27;20043;-66
2023/07/16 07:56:47;;;;;;;9.77;2.80;;;;;;;;;;5142195;27;20501;-66
2023/07/16 07:59:14;;;;;;;10.25;2.85;;;;;;;;;;5148190;27;20046;-64
2023/07/16 08:01:41;;;;;;;7.90;2.90;;;;;;;;;;5141439;27;20047;-66
2023/07/16 08:04:09;;;;;;;11.38;3.63;;;;;;;;;;5146705;27;20050;-68
2023/07/16 08:06:37;;;;;;;11.55;3.17;;;;;;;;;;5127684;27;20062;-66
2023/07/16 08:09:05;;;;;;;7.70;3.30;;;;;;;;;;5137405;27;20043;-66
2023/07/16 08:11:32;;;;;;;8.85;2.88;;;;;;;;;;5129794;27;20077;-67
2023/07/16 08:13:59;;;;;;;11.60;3.28;;;;;;;;;;5139290;27;20119;-67
2023/07/16 08:16:27;;;;;;;12.10;4.15;;;;;;;;;;5123093;27;20055;-67
2023/07/16 08:18:54;;;;;;;9.32;3.13;;;;;;;;;;5149956;27;20054;-67
2023/07/16 08:21:21;;;;;;;7.50;2.85;;;;;;;;;;5139147;27;20137;-67
2023/07/16 08:23:50;;;;;;;8.55;3.15;;;;;;;;;;5142011;27;20482;-68
2023/07/16 08:26:18;;;;;;;11.77;3.67;;;;;;;;;;5140658;27;20047;-67
2023/07/16 08:28:45;;;;;;;9.10;3.20;;;;;;;;;;5136253;27;20047;-67
2023/07/16 08:31:13;;;;;;;9.10;3.17;;;;;;;;;;5145241;27;20046;-66
2023/07/16 08:33:40;;;;;;;8.25;3.10;;;;;;;;;;5148358;27;20103;-66
2023/07/16 08:36:07;;;;;;;10.68;3.08;;;;;;;;;;5148521;27;20070;-66
2023/07/16 08:38:34;;;;;;;11.02;3.20;;;;;;;;;;5136577;27;20055;-66
2023/07/16 08:41:03;;;;;;;12.30;3.00;;;;;;;;;;5148610;27;20063;-67
2023/07/16 08:43:30;;;;;;;13.45;2.88;;;;;;;;;;5140881;27;20061;-65
2023/07/16 08:45:58;;;;;;;10.50;3.17;;;;;;;;;;5144062;27;20035;-66
2023/07/16 08:48:26;;;;;;;8.68;2.83;;;;;;;;;;5147455;27;20046;-66
2023/07/16 08:50:53;;;;;;;11.07;2.97;;;;;;;;;;5144322;27;20043;-65
2023/07/16 08:53:20;;;;;;;9.50;2.00;;;;;;;;;;5144663;27;20389;-65
2023/07/16 08:55:47;;;;;;;11.52;2.40;;;;;;;;;;5147956;27;20043;-66
2023/07/16 08:58:16;;;;;;;7.30;2.10;;;;;;;;;;5144020;27;20452;-65
2023/07/16 09:00:44;;;;;;;9.02;1.98;;;;;;;;;;5142952;27;20055;-66
2023/07/16 09:03:13;;;;;;;4.78;1.60;;;;;;;;;;5134855;27;20051;-65
2023/07/16 09:05:40;;;;;;;11.27;1.92;;;;;;;;;;5148515;27;20099;-66
2023/07/16 09:08:07;;;;;;;8.05;1.65;;;;;;;;;;5139621;27;20566;-66
2023/07/16 09:10:35;;;;;;;7.30;1.50;;;;;;;;;;5138101;27;20058;-66
2023/07/16 09:13:02;;;;;;;9.32;1.92;;;;;;;;;;5139740;27;20639;-66
2023/07/16 09:15:33;;;;;;;11.73;2.28;;;;;;;;;;5141678;27;20382;-66
2023/07/16 09:18:01;;;;;;;11.88;3.33;;;;;;;;;;5147438;27;20449;-66
2023/07/16 09:20:30;;;;;;;11.57;2.97;;;;;;;;;;5123569;27;20094;-67
2023/07/16 09:22:57;;;;;;;7.95;3.08;;;;;;;;;;5142886;27;20050;-67
2023/07/16 09:25:27;;;;;;;10.65;2.78;;;;;;;;;;5145338;27;20417;-67
2023/07/16 09:27:54;;;;;;;7.68;2.75;;;;;;;;;;5145795;27;20049;-66
2023/07/16 09:30:22;;;;;;;7.28;2.20;;;;;;;;;;5140795;27;20054;-66
2023/07/16 09:32:51;;;;;;;9.63;3.10;;;;;;;;;;5143863;27;20066;-67
2023/07/16 09:35:18;;;;;;;8.30;3.13;;;;;;;;;;5139865;27;20117;-66
2023/07/16 09:37:46;;;;;;;9.32;3.58;;;;;;;;;;5148225;27;20043;-66
2023/07/16 09:40:13;;;;;;;8.18;3.20;;;;;;;;;;5144552;27;20095;-67
2023/07/16 09:42:41;;;;;;;8.27;3.08;;;;;;;;;;5146694;27;20039;-66
2023/07/16 09:45:09;;;;;;;9.85;2.92;;;;;;;;;;5147416;27;20049;-66
2023/07/16 09:47:37;;;;;;;6.97;2.83;;;;;;;;;;5123979;27;20528;-67
2023/07/16 09:50:06;;;;;;;9.05;3.20;;;;;;;;;;5146911;27;20058;-66
2023/07/16 09:52:33;;;;;;;7.28;2.40;;;;;;;;;;5144391;27;20513;-67
2023/07/16 09:55:02;;;;;;;12.77;3.00;;;;;;;;;;5138463;27;20051;-66
2023/07/16 09:57:31;;;;;;;7.38;2.85;;;;;;;;;;5144164;27;20054;-67
2023/07/16 10:00:00;;;;;;;11.63;3.13;;;;;;;;;;5144079;27;20088;-67
2023/07/16 10:02:27;;;;;;;12.88;2.85;;;;;;;;;;5143059;27;20039;-67
2023/07/16 10:04:57;;;;;;;13.70;2.80;;;;;;;;;;5138135;27;20047;-66
2023/07/16 10:07:26;;;;;;;9.13;2.63;;;;;;;;;;5118187;27;20054;-66
2023/07/16 10:09:56;;;;;;;11.75;2.22;;;;;;;;;;5140685;27;20046;-68
2023/07/16 10:12:23;;;;;;;9.55;2.20;;;;;;;;;;5125522;27;20121;-67
2023/07/16 10:14:51;;;;;;;6.82;1.90;;;;;;;;;;5139171;27;20147;-66
2023/07/16 10:17:19;;;;;;;10.45;2.33;;;;;;;;;;5140726;27;20492;-67
2023/07/16 10:19:56;;;;;;;7.10;2.10;;;;;;;;;;5136949;27;20810;-67
2023/07/16 10:22:34;;;;;;;13.98;2.58;;;;;;;;;;5145276;27;20050;-68
2023/07/16 10:25:01;;;;;;;6.13;2.10;;;;;;;;;;5147277;27;20042;-67
2023/07/16 10:27:30;;;;;;;7.72;2.45;;;;;;;;;;5128793;27;20089;-66
2023/07/16 10:29:57;;;;;;;11.95;2.38;;;;;;;;;;5145341;27;20042;-67
2023/07/16 10:32:28;;;;;;;8.52;2.80;;;;;;;;;;5145608;27;20081;-67
2023/07/16 10:34:55;;;;;;;12.63;2.90;;;;;;;;;;5148963;27;20102;-70
2023/07/16 10:37:22;;;;;;;13.52;2.40;;;;;;;;;;5133997;27;20057;-67
2023/07/16 10:39:52;;;;;;;6.35;1.75;;;;;;;;;;5148456;27;20042;-67
2023/07/16 10:42:19;;;;;;;10.88;2.25;;;;;;;;;;5136762;27;20039;-67
2023/07/16 10:44:46;;;;;;;6.75;2.13;;;;;;;;;;5139267;27;20061;-66
2023/07/16 10:47:21;;;;;;;10.38;2.30;;;;;;;;;;5148991;27;20070;-66
2023/07/16 10:49:48;;;;;;;9.57;2.70;;;;;;;;;;5145364;27;20051;-66
2023/07/16 10:52:15;;;;;;;10.93;2.53;;;;;;;;;;5140430;27;20065;-67
2023/07/16 10:54:42;;;;;;;7.78;2.58;;;;;;;;;;5141003;27;20070;-67
2023/07/16 10:57:11;;;;;;;7.68;2.20;;;;;;;;;;5141623;27;20050;-67
2023/07/16 10:59:39;;;;;;;8.57;2.38;;;;;;;;;;5138744;27;20057;-67
2023/07/16 11:02:07;;;;;;;9.30;2.35;;;;;;;;;;5141243;27;20078;-67
2023/07/16 11:04:35;;;;;;;7.60;1.95;;;;;;;;;;5142868;27;20061;-68
2023/07/16 11:07:05;;;;;;;12.50;2.38;;;;;;;;;;5144924;27;20043;-68
2023/07/16 11:09:33;;;;;;;8.52;2.00;;;;;;;;;;5140504;27;20043;-68
2023/07/16 11:12:07;;;;;;;10.63;2.40;;;;;;;;;;5143280;27;20043;-68
2023/07/16 11:14:35;;;;;;;6.80;2.10;;;;;;;;;;5146849;27;20077;-67
2023/07/16 11:17:07;;;;;;;6.82;1.83;;;;;;;;;;5135365;27;20047;-67
2023/07/16 11:19:34;;;;;;;10.07;2.08;;;;;;;;;;5143272;27;20046;-67
2023/07/16 11:22:02;;;;;;;8.90;1.70;;;;;;;;;;5125789;27;20051;-68
2023/07/16 11:24:29;;;;;;;11.43;1.90;;;;;;;;;;5145978;27;20082;-67
2023/07/16 11:26:57;;;;;;;6.25;1.70;;;;;;;;;;5148515;27;20054;-67
2023/07/16 11:29:25;;;;;;;8.75;1.42;;;;;;;;;;5123045;27;20058;-67
2023/07/16 11:31:54;;;;;;;10.02;1.90;;;;;;;;;;5120181;27;20043;-67
2023/07/16 11:34:22;;;;;;;6.97;1.80;;;;;;;;;;5141498;27;20043;-67
2023/07/16 11:36:50;;;;;;;6.22;1.50;;;;;;;;;;5135251;27;20092;-66
2023/07/16 11:39:18;;;;;;;6.82;1.80;;;;;;;;;;5142706;27;20130;-66
2023/07/16 11:41:55;;;;;;;6.75;1.33;;;;;;;;;;5143931;27;20131;-67
2023/07/16 11:44:22;;;;;;;5.53;1.40;;;;;;;;;;5125200;27;20050;-67
2023/07/16 11:46:49;;;;;;;8.43;1.48;;;;;;;;;;5139569;27;20034;-67
2023/07/16 11:49:18;;;;;;;8.05;1.40;;;;;;;;;;5140589;27;20078;-67
2023/07/16 11:51:46;;;;;;;6.70;1.73;;;;;;;;;;5144876;27;20062;-67
2023/07/16 11:54:13;;;;;;;7.05;1.70;;;;;;;;;;5152203;27;20045;-68
2023/07/16 11:56:40;;;;;;;7.57;1.60;;;;;;;;;;5145945;27;20042;-69
2023/07/16 11:59:07;;;;;;;8.68;1.55;;;;;;;;;;5144328;27;20051;-67
2023/07/16 12:01:35;;;;;;;7.55;1.40;;;;;;;;;;5151204;27;20058;-67
2023/07/16 12:04:02;;;;;;;9.38;1.48;;;;;;;;;;5149834;27;20049;-66
2023/07/16 12:06:31;;;;;;;9.68;1.63;;;;;;;;;;5150610;27;20069;-67
2023/07/16 12:08:58;;;;;;;12.80;1.60;;;;;;;;;;5149420;27;20051;-67
2023/07/16 12:11:25;;;;;;;5.15;1.50;;;;;;;;;;5150008;27;20065;-67
2023/07/16 12:13:52;;;;;;;9.57;1.90;;;;;;;;;;5145090;27;20055;-67
2023/07/16 12:16:20;;;;;;;12.02;2.20;;;;;;;;;;5139471;27;20050;-66
2023/07/16 12:18:47;;;;;;;9.68;1.98;;;;;;;;;;5137534;27;20051;-68
2023/07/16 12:21:14;;;;;;;12.70;2.10;;;;;;;;;;5141651;27;20042;-66
2023/07/16 12:23:43;;;;;;;8.45;1.60;;;;;;;;;;5141487;27;20047;-66
2023/07/16 12:26:10;;;;;;;7.78;1.45;;;;;;;;;;5147852;27;20039;-65
2023/07/16 12:28:37;;;;;;;8.90;1.55;;;;;;;;;;5150934;27;20055;-66
2023/07/16 12:31:04;;;;;;;10.90;1.42;;;;;;;;;;5147514;27;20047;-65
2023/07/16 12:33:32;;;;;;;12.32;1.45;;;;;;;;;;5150925;27;20051;-65
2023/07/16 12:35:59;;;;;;;8.73;1.55;;;;;;;;;;5144328;27;20485;-65
2023/07/16 12:38:26;;;;;;;11.35;1.95;;;;;;;;;;5146516;27;20050;-65
2023/07/16 12:40:55;;;;;;;9.02;1.73;;;;;;;;;;5147923;27;20055;-65
2023/07/16 12:43:22;;;;;;;15.20;1.80;;;;;;;;;;5146443;27;20401;-66
2023/07/16 12:45:49;;;;;;;16.80;2.03;;;;;;;;;;5141826;27;20047;-65
2023/07/16 12:48:16;;;;;;;11.13;2.00;;;;;;;;;;5146666;27;20043;-66
2023/07/16 12:50:43;;;;;;;6.03;2.05;;;;;;;;;;5146219;27;20050;-67
2023/07/16 12:53:11;;;;;;;8.48;1.60;;;;;;;;;;5140767;27;20063;-67
2023/07/16 12:55:38;;;;;;;8.80;1.80;;;;;;;;;;5139447;27;20144;-66
2023/07/16 12:58:07;;;;;;;6.68;1.65;;;;;;;;;;5129523;27;20058;-66
2023/07/16 13:00:34;;;;;;;10.43;1.95;;;;;;;;;;5147981;27;20405;-66
2023/07/16 13:03:02;;;;;;;10.68;1.73;;;;;;;;;;5144630;27;20047;-66
2023/07/16 13:05:29;;;;;;;6.90;1.55;;;;;;;;;;5139998;27;20047;-65
2023/07/16 13:07:57;;;;;;;11.48;1.83;;;;;;;;;;5141224;27;20038;-66
2023/07/16 13:10:24;;;;;;;10.10;2.05;;;;;;;;;;5145029;27;20428;-67
2023/07/16 13:12:51;;;;;;;6.22;1.58;;;;;;;;;;5147829;27;20054;-66
2023/07/16 13:15:20;;;;;;;7.78;1.50;;;;;;;;;;5145129;27;20496;-66
2023/07/16 13:17:49;;;;;;;8.00;1.52;;;;;;;;;;5143962;27;20062;-65
2023/07/16 13:20:16;;;;;;;9.93;1.40;;;;;;;;;;5145919;27;20039;-66
2023/07/16 13:22:43;;;;;;;6.65;1.27;;;;;;;;;;5148897;27;20057;-66
2023/07/16 13:25:11;;;;;;;3.90;1.20;;;;;;;;;;5144240;27;20039;-67
2023/07/16 13:27:38;;;;;;;6.28;1.30;;;;;;;;;;5143663;27;20745;-66
2023/07/16 13:30:06;;;;;;;4.03;1.15;;;;;;;;;;5138387;27;20043;-67
2023/07/16 13:32:34;;;;;;;7.05;1.48;;;;;;;;;;5127493;27;20146;-66
2023/07/16 13:35:02;;;;;;;6.30;1.33;;;;;;;;;;5138321;27;20049;-68
2023/07/16 13:37:30;;;;;;;9.45;2.20;;;;;;;;;;5147718;27;20055;-67
2023/07/16 13:39:57;;;;;;;5.18;1.63;;;;;;;;;;5137866;27;20042;-67
2023/07/16 13:42:24;;;;;;;7.93;1.40;;;;;;;;;;5147834;27;20043;-68
2023/07/16 13:44:51;;;;;;;9.88;2.40;;;;;;;;;;5140516;27;20047;-66
2023/07/16 13:47:20;;;;;;;9.43;1.45;;;;;;;;;;5146928;27;20504;-67
2023/07/16 13:49:49;;;;;;;8.85;1.30;;;;;;;;;;5144781;27;20050;-67
2023/07/16 13:52:16;;;;;;;10.82;2.05;;;;;;;;;;5140120;27;20046;-67
2023/07/16 13:54:44;;;;;;;12.70;1.98;;;;;;;;;;5143264;27;20155;-67
2023/07/16 13:57:11;;;;;;;8.27;2.08;;;;;;;;;;5144423;27;20039;-69
2023/07/16 13:59:38;;;;;;;10.75;2.10;;;;;;;;;;5141821;27;20059;-69
2023/07/16 14:02:05;;;;;;;4.65;1.35;;;;;;;;;;5147340;27;20039;-68
2023/07/16 14:04:33;;;;;;;6.88;1.70;;;;;;;;;;5140812;27;20047;-70
2023/07/16 14:07:01;;;;;;;7.97;1.58;;;;;;;;;;5140181;27;20404;-68
2023/07/16 14:09:29;;;;;;;12.45;1.98;;;;;;;;;;5145729;27;20075;-66
2023/07/16 14:11:56;;;;;;;9.75;1.70;;;;;;;;;;5128659;27;20050;-68
2023/07/16 14:14:23;;;;;;;6.95;1.50;;;;;;;;;;5148652;27;20058;-68
2023/07/16 14:16:51;;;;;;;8.65;1.60;;;;;;;;;;5145783;27;20050;-68
2023/07/16 14:19:18;;;;;;;10.40;1.88;;;;;;;;;;5139388;27;20043;-68
2023/07/16 14:21:45;;;;;;;6.28;1.40;;;;;;;;;;5143071;27;20047;-68
2023/07/16 14:24:14;;;;;;;6.85;1.50;;;;;;;;;;5142027;27;20035;-69
2023/07/16 14:26:41;;;;;;;4.32;1.40;;;;;;;;;;5144633;27;20050;-69
2023/07/16 14:29:11;;;;;;;5.30;1.27;;;;;;;;;;5145530;27;20070;-69
2023/07/16 14:31:38;;;;;;;6.93;2.03;;;;;;;;;;5140899;27;20051;-68
2023/07/16 14:34:05;;;;;;;6.85;1.30;;;;;;;;;;5146433;27;20061;-69
2023/07/16 14:36:32;;;;;;;5.80;1.55;;;;;;;;;;5122514;27;20390;-67
2023/07/16 14:39:00;;;;;;;5.65;1.70;;;;;;;;;;5140752;27;20047;-68